Marinicki — 9HWU9 — position and weather

sailwx.info

Track history (hours):
 
Tides and Currents Weather Stations Pressure Air Temp Water Temp Dewpoint Dewpoint Depression Visibility Wind Speed Wind Dir Waves Ship Positions

Marinicki

Last reported at 2016-Feb-02 21:03 UTC. Time now 2016-Feb-06 13:44 UTC.
Position N 01°16' E 104°12'.

Length 225 m; draft 12.3 m.

Type: Cargo ship. MMSI: 249650000.

Date/timePositionNaut miles runAvg speedWind from/ knotsBaromVisibWave heightAir tempDewpointWater temp
2016-Feb-02 21:03N 01°16' E 104°12'611.1
2016-Feb-02 20:32N 01°15' E 104°06'8 8.1
2016-Feb-02 19:33N 01°16' E 103°58'1 1.1
2016-Feb-02 18:28N 01°17' E 103°57'0 0.1
2016-Feb-02 17:21N 01°17' E 103°57'0 0.0
2016-Feb-02 16:33N 01°17' E 103°57'0 0.0
2016-Feb-02 15:27N 01°17' E 103°57'0 0.0
2016-Feb-02 14:21N 01°17' E 103°57'0 0.1
2016-Feb-02 13:27N 01°16' E 103°57'0 0.0
2016-Feb-02 12:33N 01°16' E 103°57'0 0.0
2016-Feb-02 11:33N 01°16' E 103°57'0 0.0
2016-Feb-02 10:33N 01°16' E 103°57'0 0.0
2016-Feb-02 09:24N 01°16' E 103°57'0 0.0
2016-Feb-02 08:33N 01°16' E 103°57'0 0.0
2016-Feb-02 07:30N 01°16' E 103°57'0 0.0
2016-Feb-02 06:33N 01°16' E 103°57'0 0.1
2016-Feb-02 05:33N 01°16' E 103°57'0 0.1
2016-Feb-02 04:33N 01°16' E 103°57'0 0.1
2016-Feb-02 03:33N 01°16' E 103°57'0 0.1
2016-Feb-02 02:33N 01°16' E 103°57'0 0.1
2016-Feb-02 01:33N 01°16' E 103°57'3 2.5
2016-Feb-02 00:33N 01°14' E 103°57'4 3.7
2016-Feb-01 23:33N 01°12' E 103°54'6 6.1
2016-Feb-01 22:32N 01°10' E 103°48'7 6.8
2016-Feb-01 21:33N 01°05' E 103°43'  
Track history (hours):
 
Tides and Currents Weather Stations Pressure Air Temp Water Temp Dewpoint Dewpoint Depression Visibility Wind Speed Wind Dir Waves Ship Positions

Marinicki

Last reported at 2016-Feb-02 21:03 UTC. Time now 2016-Feb-06 13:44 UTC.
Position N 01°16' E 104°12'.

Length 225 m; draft 12.3 m.

Type: Cargo ship. MMSI: 249650000.

Date/timePositionNaut miles runAvg speedWind from/ knotsBaromVisibWave heightAir tempDewpointWater temp
2016-Feb-02 21:03N 01°16' E 104°12'611.1
2016-Feb-02 20:32N 01°15' E 104°06'8 8.1
2016-Feb-02 19:33N 01°16' E 103°58'1 1.1
2016-Feb-02 18:28N 01°17' E 103°57'0 0.1
2016-Feb-02 17:21N 01°17' E 103°57'0 0.0
2016-Feb-02 16:33N 01°17' E 103°57'0 0.0
2016-Feb-02 15:27N 01°17' E 103°57'0 0.0
2016-Feb-02 14:21N 01°17' E 103°57'0 0.1
2016-Feb-02 13:27N 01°16' E 103°57'0 0.0
2016-Feb-02 12:33N 01°16' E 103°57'0 0.0
2016-Feb-02 11:33N 01°16' E 103°57'0 0.0
2016-Feb-02 10:33N 01°16' E 103°57'0 0.0
2016-Feb-02 09:24N 01°16' E 103°57'0 0.0
2016-Feb-02 08:33N 01°16' E 103°57'0 0.0
2016-Feb-02 07:30N 01°16' E 103°57'0 0.0
2016-Feb-02 06:33N 01°16' E 103°57'0 0.1
2016-Feb-02 05:33N 01°16' E 103°57'0 0.1
2016-Feb-02 04:33N 01°16' E 103°57'0 0.1
2016-Feb-02 03:33N 01°16' E 103°57'0 0.1
2016-Feb-02 02:33N 01°16' E 103°57'0 0.1
2016-Feb-02 01:33N 01°16' E 103°57'3 2.5
2016-Feb-02 00:33N 01°14' E 103°57'4 3.7
2016-Feb-01 23:33N 01°12' E 103°54'6 6.1
2016-Feb-01 22:32N 01°10' E 103°48'7 6.8
2016-Feb-01 21:33N 01°05' E 103°43'  

Dump ship's entire track history